DTKA/TBJ METAR and TAF weather

Enter ICAO airport designator
Station Type Date Time Source
DTKA METAR 2018/09/22 00:00 UTC NOAA

DTKA 220000Z AUTO 00000KT /// 24/21 Q1018


Station Type Date Time Source
DTKA Decoded METAR 2018/09/22 00:00 UTC NOAA

Tabarka, Tunisia (DTKA) 36-57N 008-45E 21M
Sep 21, 2018 - 08:00 PM EDT / 2018.09.22 0000 UTC
Wind: Calm:0
Temperature: 75 F (24 C)
Dew Point: 69 F (21 C)
Relative Humidity: 83%
Pressure (altimeter): 30.06 in. Hg (1018 hPa)
ob: DTKA 220000Z AUTO 00000KT /// 24/21 Q1018
cycle: 0

Station Type Date Time Source
DTKA TAF 2018/07/22 13:33 UTC NOAA

TAF TAF DTKA 221200Z 2213/2322 23005KT 9999 FEW020 PROB30
TEMPO 2217/2222 4000 -TSRA FEW026CB


Example: see airport list